sensor_id;sensor_type;location;lat;lon;timestamp;pressure;altitude;pressure_sealevel;temperature;humidity
61357;BME280;47227;46.752;23.576;2022-10-18T00:00:49;97872.83;;;8.38;73.73
61357;BME280;47227;46.752;23.576;2022-10-18T00:03:34;97867.89;;;8.33;73.91
61357;BME280;47227;46.752;23.576;2022-10-18T00:06:03;97869.72;;;8.28;73.67
61357;BME280;47227;46.752;23.576;2022-10-18T00:08:30;97866.66;;;8.23;73.85
61357;BME280;47227;46.752;23.576;2022-10-18T00:10:58;97866.28;;;8.19;73.84
61357;BME280;47227;46.752;23.576;2022-10-18T00:13:26;97866.64;;;8.17;73.84
61357;BME280;47227;46.752;23.576;2022-10-18T00:15:58;97865.77;;;8.19;74.20
61357;BME280;47227;46.752;23.576;2022-10-18T00:18:26;97860.79;;;8.21;74.23
61357;BME280;47227;46.752;23.576;2022-10-18T00:20:57;97860.20;;;8.25;74.38
61357;BME280;47227;46.752;23.576;2022-10-18T00:23:26;97859.63;;;8.28;74.51
61357;BME280;47227;46.752;23.576;2022-10-18T00:26:00;97858.52;;;8.32;74.69
61357;BME280;47227;46.752;23.576;2022-10-18T00:28:29;97855.38;;;8.38;74.73
61357;BME280;47227;46.752;23.576;2022-10-18T00:31:08;97854.41;;;8.43;74.84
61357;BME280;47227;46.752;23.576;2022-10-18T00:33:35;97854.60;;;8.47;75.68
61357;BME280;47227;46.752;23.576;2022-10-18T00:36:03;97855.59;;;8.45;75.16
61357;BME280;47227;46.752;23.576;2022-10-18T00:38:31;97856.27;;;8.43;75.06
61357;BME280;47227;46.752;23.576;2022-10-18T00:40:58;97852.45;;;8.42;75.51
61357;BME280;47227;46.752;23.576;2022-10-18T00:43:26;97852.55;;;8.40;75.28
61357;BME280;47227;46.752;23.576;2022-10-18T00:45:54;97847.27;;;8.36;75.31
61357;BME280;47227;46.752;23.576;2022-10-18T00:48:22;97843.27;;;8.30;75.12
61357;BME280;47227;46.752;23.576;2022-10-18T00:50:51;97843.12;;;8.26;75.20
61357;BME280;47227;46.752;23.576;2022-10-18T00:53:21;97844.30;;;8.20;75.13
61357;BME280;47227;46.752;23.576;2022-10-18T00:55:49;97846.69;;;8.16;75.19
61357;BME280;47227;46.752;23.576;2022-10-18T00:58:18;97847.82;;;8.11;75.26
61357;BME280;47227;46.752;23.576;2022-10-18T01:00:46;97844.38;;;8.06;75.18
61357;BME280;47227;46.752;23.576;2022-10-18T01:03:13;97841.90;;;8.01;75.51
61357;BME280;47227;46.752;23.576;2022-10-18T01:05:44;97837.75;;;7.92;75.23
61357;BME280;47227;46.752;23.576;2022-10-18T01:11:28;97830.39;;;7.69;75.37
61357;BME280;47227;46.752;23.576;2022-10-18T01:14:25;97827.18;;;7.59;75.73
61357;BME280;47227;46.752;23.576;2022-10-18T01:17:03;97826.05;;;7.53;76.60
61357;BME280;47227;46.752;23.576;2022-10-18T01:20:01;97824.36;;;7.47;76.39
61357;BME280;47227;46.752;23.576;2022-10-18T01:22:36;97822.54;;;7.41;76.19
61357;BME280;47227;46.752;23.576;2022-10-18T01:25:35;97821.38;;;7.36;75.93
61357;BME280;47227;46.752;23.576;2022-10-18T01:28:19;97821.55;;;7.32;75.98
61357;BME280;47227;46.752;23.576;2022-10-18T01:30:57;97819.71;;;7.28;76.05
61357;BME280;47227;46.752;23.576;2022-10-18T01:36:22;97817.02;;;7.28;76.45
61357;BME280;47227;46.752;23.576;2022-10-18T01:38:56;97815.23;;;7.29;76.60
61357;BME280;47227;46.752;23.576;2022-10-18T01:41:25;97807.65;;;7.30;77.05
61357;BME280;47227;46.752;23.576;2022-10-18T01:43:58;97804.67;;;7.30;77.52
61357;BME280;47227;46.752;23.576;2022-10-18T01:46:27;97804.48;;;7.30;77.64
61357;BME280;47227;46.752;23.576;2022-10-18T01:48:56;97799.98;;;7.30;77.61
61357;BME280;47227;46.752;23.576;2022-10-18T01:51:26;97798.81;;;7.31;77.56
61357;BME280;47227;46.752;23.576;2022-10-18T01:53:54;97797.23;;;7.33;77.94
61357;BME280;47227;46.752;23.576;2022-10-18T01:56:36;97792.21;;;7.34;77.99
61357;BME280;47227;46.752;23.576;2022-10-18T01:59:29;97793.36;;;7.37;78.32
61357;BME280;47227;46.752;23.576;2022-10-18T02:02:18;97792.83;;;7.42;78.70
61357;BME280;47227;46.752;23.576;2022-10-18T02:05:05;97790.67;;;7.41;78.78
61357;BME280;47227;46.752;23.576;2022-10-18T02:10:47;97786.57;;;7.22;79.24
61357;BME280;47227;46.752;23.576;2022-10-18T02:13:18;97781.08;;;7.14;78.74
61357;BME280;47227;46.752;23.576;2022-10-18T02:15:50;97782.23;;;7.06;78.43
61357;BME280;47227;46.752;23.576;2022-10-18T02:18:26;97781.67;;;6.98;78.88
61357;BME280;47227;46.752;23.576;2022-10-18T02:20:56;97777.73;;;6.91;78.56
61357;BME280;47227;46.752;23.576;2022-10-18T02:23:25;97778.61;;;6.84;78.38
61357;BME280;47227;46.752;23.576;2022-10-18T02:25:54;97777.01;;;6.79;78.28
61357;BME280;47227;46.752;23.576;2022-10-18T02:28:21;97777.53;;;6.73;78.35
61357;BME280;47227;46.752;23.576;2022-10-18T02:31:03;97781.06;;;6.68;78.67
61357;BME280;47227;46.752;23.576;2022-10-18T02:33:46;97780.90;;;6.64;78.65
61357;BME280;47227;46.752;23.576;2022-10-18T02:36:25;97779.27;;;6.60;78.79
61357;BME280;47227;46.752;23.576;2022-10-18T02:39:02;97775.77;;;6.57;79.18
61357;BME280;47227;46.752;23.576;2022-10-18T02:41:30;97773.96;;;6.57;79.36
61357;BME280;47227;46.752;23.576;2022-10-18T02:43:58;97775.75;;;6.55;79.28
61357;BME280;47227;46.752;23.576;2022-10-18T02:46:26;97774.74;;;6.55;79.11
61357;BME280;47227;46.752;23.576;2022-10-18T02:48:59;97776.63;;;6.55;79.08
61357;BME280;47227;46.752;23.576;2022-10-18T02:51:27;97775.89;;;6.54;79.00
61357;BME280;47227;46.752;23.576;2022-10-18T02:53:54;97775.16;;;6.53;79.27
61357;BME280;47227;46.752;23.576;2022-10-18T02:56:22;97778.00;;;6.55;79.29
61357;BME280;47227;46.752;23.576;2022-10-18T02:58:50;97776.88;;;6.60;79.95
61357;BME280;47227;46.752;23.576;2022-10-18T03:01:18;97775.02;;;6.66;79.98
61357;BME280;47227;46.752;23.576;2022-10-18T03:03:45;97777.89;;;6.76;80.43
61357;BME280;47227;46.752;23.576;2022-10-18T03:06:13;97778.02;;;6.85;80.37
61357;BME280;47227;46.752;23.576;2022-10-18T03:08:41;97778.42;;;6.95;80.62
61357;BME280;47227;46.752;23.576;2022-10-18T03:11:08;97777.13;;;7.02;80.91
61357;BME280;47227;46.752;23.576;2022-10-18T03:13:36;97773.15;;;7.10;80.65
61357;BME280;47227;46.752;23.576;2022-10-18T03:16:04;97768.15;;;7.17;80.82
61357;BME280;47227;46.752;23.576;2022-10-18T03:18:32;97767.42;;;7.21;80.72
61357;BME280;47227;46.752;23.576;2022-10-18T03:21:05;97769.05;;;7.23;80.47
61357;BME280;47227;46.752;23.576;2022-10-18T03:23:33;97767.23;;;7.23;80.52
61357;BME280;47227;46.752;23.576;2022-10-18T03:26:01;97767.02;;;7.22;80.50
61357;BME280;47227;46.752;23.576;2022-10-18T03:28:28;97763.79;;;7.19;80.41
61357;BME280;47227;46.752;23.576;2022-10-18T03:31:00;97761.30;;;7.15;80.32
61357;BME280;47227;46.752;23.576;2022-10-18T03:33:30;97761.77;;;7.10;80.59
61357;BME280;47227;46.752;23.576;2022-10-18T03:35:58;97758.24;;;7.03;80.45
61357;BME280;47227;46.752;23.576;2022-10-18T03:38:26;97760.64;;;6.98;80.30
61357;BME280;47227;46.752;23.576;2022-10-18T03:40:53;97760.58;;;6.91;80.13
61357;BME280;47227;46.752;23.576;2022-10-18T03:43:22;97760.48;;;6.85;80.10
61357;BME280;47227;46.752;23.576;2022-10-18T03:45:50;97756.50;;;6.79;80.30
61357;BME280;47227;46.752;23.576;2022-10-18T03:48:20;97756.66;;;6.72;80.12
61357;BME280;47227;46.752;23.576;2022-10-18T03:50:48;97757.12;;;6.65;79.69
61357;BME280;47227;46.752;23.576;2022-10-18T03:53:15;97756.05;;;6.58;81.74
61357;BME280;47227;46.752;23.576;2022-10-18T03:55:43;97757.48;;;6.49;81.44
61357;BME280;47227;46.752;23.576;2022-10-18T03:58:11;97760.90;;;6.42;81.03
61357;BME280;47227;46.752;23.576;2022-10-18T04:00:38;97764.80;;;6.37;80.85
61357;BME280;47227;46.752;23.576;2022-10-18T04:03:06;97762.53;;;6.31;80.72
61357;BME280;47227;46.752;23.576;2022-10-18T04:05:33;97762.16;;;6.26;80.47
61357;BME280;47227;46.752;23.576;2022-10-18T04:08:03;97766.48;;;6.22;80.38
61357;BME280;47227;46.752;23.576;2022-10-18T04:10:31;97764.93;;;6.20;80.50
61357;BME280;47227;46.752;23.576;2022-10-18T04:12:58;97764.66;;;6.21;80.90
61357;BME280;47227;46.752;23.576;2022-10-18T04:15:26;97761.53;;;6.24;80.93
61357;BME280;47227;46.752;23.576;2022-10-18T04:17:54;97756.08;;;6.27;80.81
61357;BME280;47227;46.752;23.576;2022-10-18T04:20:23;97749.59;;;6.31;81.23
61357;BME280;47227;46.752;23.576;2022-10-18T04:22:51;97751.96;;;6.37;81.22
61357;BME280;47227;46.752;23.576;2022-10-18T04:25:42;97752.14;;;6.44;81.26
61357;BME280;47227;46.752;23.576;2022-10-18T04:28:21;97752.73;;;6.51;81.28
61357;BME280;47227;46.752;23.576;2022-10-18T04:30:50;97752.16;;;6.56;81.41
61357;BME280;47227;46.752;23.576;2022-10-18T04:33:19;97752.98;;;6.59;81.44
61357;BME280;47227;46.752;23.576;2022-10-18T04:35:50;97752.45;;;6.63;81.43
61357;BME280;47227;46.752;23.576;2022-10-18T04:38:18;97746.23;;;6.67;81.58
61357;BME280;47227;46.752;23.576;2022-10-18T04:40:46;97743.48;;;6.68;82.31
61357;BME280;47227;46.752;23.576;2022-10-18T04:43:14;97746.23;;;6.63;82.11
61357;BME280;47227;46.752;23.576;2022-10-18T04:45:44;97746.31;;;6.59;81.85
61357;BME280;47227;46.752;23.576;2022-10-18T04:48:13;97745.77;;;6.57;81.50
61357;BME280;47227;46.752;23.576;2022-10-18T04:50:41;97749.52;;;6.55;81.57
61357;BME280;47227;46.752;23.576;2022-10-18T04:53:14;97746.60;;;6.52;81.48
61357;BME280;47227;46.752;23.576;2022-10-18T04:55:44;97749.69;;;6.47;81.65
61357;BME280;47227;46.752;23.576;2022-10-18T04:58:15;97749.05;;;6.41;81.42
61357;BME280;47227;46.752;23.576;2022-10-18T05:00:43;97746.86;;;6.35;81.16
61357;BME280;47227;46.752;23.576;2022-10-18T05:03:12;97743.10;;;6.32;81.37
61357;BME280;47227;46.752;23.576;2022-10-18T05:05:43;97739.23;;;6.27;82.14
61357;BME280;47227;46.752;23.576;2022-10-18T05:08:33;97738.83;;;6.23;81.70
61357;BME280;47227;46.752;23.576;2022-10-18T05:11:02;97739.69;;;6.21;81.73
61357;BME280;47227;46.752;23.576;2022-10-18T05:13:30;97733.54;;;6.20;81.83
61357;BME280;47227;46.752;23.576;2022-10-18T05:15:58;97733.98;;;6.20;82.35
61357;BME280;47227;46.752;23.576;2022-10-18T05:18:26;97732.55;;;6.21;81.87
61357;BME280;47227;46.752;23.576;2022-10-18T05:20:55;97733.39;;;6.22;81.84
61357;BME280;47227;46.752;23.576;2022-10-18T05:23:23;97732.73;;;6.26;82.34
61357;BME280;47227;46.752;23.576;2022-10-18T05:25:52;97733.25;;;6.32;83.11
61357;BME280;47227;46.752;23.576;2022-10-18T05:28:33;97733.41;;;6.37;82.29
61357;BME280;47227;46.752;23.576;2022-10-18T05:31:08;97733.36;;;6.36;82.72
61357;BME280;47227;46.752;23.576;2022-10-18T05:33:37;97736.67;;;6.31;84.87
61357;BME280;47227;46.752;23.576;2022-10-18T05:36:05;97738.81;;;6.25;86.90
61357;BME280;47227;46.752;23.576;2022-10-18T05:38:34;97739.63;;;6.27;87.75
61357;BME280;47227;46.752;23.576;2022-10-18T05:41:04;97742.01;;;6.27;88.76
61357;BME280;47227;46.752;23.576;2022-10-18T05:43:35;97748.19;;;6.31;89.29
61357;BME280;47227;46.752;23.576;2022-10-18T05:46:06;97751.81;;;6.37;87.93
61357;BME280;47227;46.752;23.576;2022-10-18T05:48:43;97753.55;;;6.45;87.95
61357;BME280;47227;46.752;23.576;2022-10-18T05:51:11;97755.34;;;6.51;87.44
61357;BME280;47227;46.752;23.576;2022-10-18T05:53:38;97758.16;;;6.59;86.63
61357;BME280;47227;46.752;23.576;2022-10-18T05:56:07;97761.66;;;6.66;87.26
61357;BME280;47227;46.752;23.576;2022-10-18T05:58:35;97758.34;;;6.75;86.51
61357;BME280;47227;46.752;23.576;2022-10-18T06:01:04;97759.50;;;6.83;86.21
61357;BME280;47227;46.752;23.576;2022-10-18T06:03:33;97759.30;;;6.92;85.77
61357;BME280;47227;46.752;23.576;2022-10-18T06:06:03;97758.45;;;7.00;85.43
61357;BME280;47227;46.752;23.576;2022-10-18T06:08:31;97757.14;;;7.06;84.89
61357;BME280;47227;46.752;23.576;2022-10-18T06:11:05;97757.41;;;7.14;84.89
61357;BME280;47227;46.752;23.576;2022-10-18T06:13:34;97757.54;;;7.22;85.12
61357;BME280;47227;46.752;23.576;2022-10-18T06:16:01;97753.37;;;7.26;85.26
61357;BME280;47227;46.752;23.576;2022-10-18T06:18:29;97749.11;;;7.32;84.89
61357;BME280;47227;46.752;23.576;2022-10-18T06:20:58;97748.11;;;7.50;85.42
61357;BME280;47227;46.752;23.576;2022-10-18T06:23:27;97741.84;;;7.82;85.78
61357;BME280;47227;46.752;23.576;2022-10-18T06:25:59;97742.66;;;8.16;85.66
61357;BME280;47227;46.752;23.576;2022-10-18T06:28:28;97738.79;;;8.23;84.24
61357;BME280;47227;46.752;23.576;2022-10-18T06:30:56;97739.63;;;8.09;82.95
61357;BME280;47227;46.752;23.576;2022-10-18T06:33:25;97744.92;;;8.05;82.94
61357;BME280;47227;46.752;23.576;2022-10-18T06:36:03;97738.92;;;8.03;83.19
61357;BME280;47227;46.752;23.576;2022-10-18T06:38:36;97736.20;;;8.06;83.10
61357;BME280;47227;46.752;23.576;2022-10-18T06:41:05;97739.56;;;8.10;82.93
61357;BME280;47227;46.752;23.576;2022-10-18T06:43:37;97738.20;;;8.12;82.59
61357;BME280;47227;46.752;23.576;2022-10-18T06:46:07;97744.40;;;8.15;82.56
61357;BME280;47227;46.752;23.576;2022-10-18T06:48:37;97746.77;;;8.18;82.33
61357;BME280;47227;46.752;23.576;2022-10-18T06:51:08;97743.05;;;8.23;82.20
61357;BME280;47227;46.752;23.576;2022-10-18T06:53:58;97741.84;;;8.32;82.14
61357;BME280;47227;46.752;23.576;2022-10-18T06:56:44;97737.70;;;8.39;82.39
61357;BME280;47227;46.752;23.576;2022-10-18T06:59:16;97739.23;;;8.48;81.91
61357;BME280;47227;46.752;23.576;2022-10-18T07:02:21;97740.61;;;8.57;81.67
61357;BME280;47227;46.752;23.576;2022-10-18T07:04:55;97738.27;;;8.71;81.64
61357;BME280;47227;46.752;23.576;2022-10-18T07:07:29;97738.24;;;8.83;81.54
61357;BME280;47227;46.752;23.576;2022-10-18T07:10:19;97737.64;;;8.94;80.87
61357;BME280;47227;46.752;23.576;2022-10-18T07:12:50;97739.15;;;9.07;81.27
61357;BME280;47227;46.752;23.576;2022-10-18T07:15:35;97738.17;;;9.19;80.88
61357;BME280;47227;46.752;23.576;2022-10-18T07:18:05;97733.42;;;9.29;80.65
61357;BME280;47227;46.752;23.576;2022-10-18T07:20:33;97733.21;;;9.38;80.48
61357;BME280;47227;46.752;23.576;2022-10-18T07:23:07;97729.66;;;9.48;80.10
61357;BME280;47227;46.752;23.576;2022-10-18T07:25:40;97729.81;;;9.56;80.07
61357;BME280;47227;46.752;23.576;2022-10-18T07:28:08;97729.39;;;9.65;79.75
61357;BME280;47227;46.752;23.576;2022-10-18T07:30:38;97724.58;;;9.71;79.42
61357;BME280;47227;46.752;23.576;2022-10-18T07:33:41;97726.26;;;9.78;79.39
61357;BME280;47227;46.752;23.576;2022-10-18T07:36:15;97726.64;;;9.83;78.92
61357;BME280;47227;46.752;23.576;2022-10-18T07:38:54;97723.93;;;9.86;78.86
61357;BME280;47227;46.752;23.576;2022-10-18T07:41:23;97729.84;;;9.89;78.19
61357;BME280;47227;46.752;23.576;2022-10-18T07:44:00;97725.11;;;9.95;78.23
61357;BME280;47227;46.752;23.576;2022-10-18T07:46:37;97722.66;;;10.02;78.21
61357;BME280;47227;46.752;23.576;2022-10-18T07:49:28;97722.79;;;10.11;78.22
61357;BME280;47227;46.752;23.576;2022-10-18T07:51:57;97717.77;;;10.21;78.32
61357;BME280;47227;46.752;23.576;2022-10-18T07:54:26;97713.81;;;10.31;78.26
61357;BME280;47227;46.752;23.576;2022-10-18T07:57:00;97710.33;;;10.43;77.68
61357;BME280;47227;46.752;23.576;2022-10-18T07:59:28;97710.14;;;10.46;75.90
61357;BME280;47227;46.752;23.576;2022-10-18T08:02:31;97705.84;;;10.50;75.28
61357;BME280;47227;46.752;23.576;2022-10-18T08:05:02;97705.65;;;10.61;75.46
61357;BME280;47227;46.752;23.576;2022-10-18T08:07:47;97701.31;;;10.76;74.88
61357;BME280;47227;46.752;23.576;2022-10-18T08:10:26;97696.30;;;10.89;74.66
61357;BME280;47227;46.752;23.576;2022-10-18T08:13:35;97695.96;;;11.10;74.66
61357;BME280;47227;46.752;23.576;2022-10-18T08:16:08;97698.05;;;11.26;74.74
61357;BME280;47227;46.752;23.576;2022-10-18T08:18:59;97693.77;;;11.46;73.56
61357;BME280;47227;46.752;23.576;2022-10-18T08:21:39;97683.64;;;11.63;72.65
61357;BME280;47227;46.752;23.576;2022-10-18T08:24:12;97679.98;;;11.80;72.75
61357;BME280;47227;46.752;23.576;2022-10-18T08:26:52;97679.56;;;12.01;72.09
61357;BME280;47227;46.752;23.576;2022-10-18T08:29:28;97679.96;;;12.11;71.09
61357;BME280;47227;46.752;23.576;2022-10-18T08:32:47;97677.11;;;12.27;71.14
61357;BME280;47227;46.752;23.576;2022-10-18T08:38:55;97675.98;;;12.57;69.12
61357;BME280;47227;46.752;23.576;2022-10-18T08:41:39;97672.81;;;12.67;69.83
61357;BME280;47227;46.752;23.576;2022-10-18T08:44:19;97674.14;;;12.72;68.04
61357;BME280;47227;46.752;23.576;2022-10-18T08:46:54;97667.85;;;12.78;68.08
61357;BME280;47227;46.752;23.576;2022-10-18T08:49:57;97665.84;;;12.82;67.57
61357;BME280;47227;46.752;23.576;2022-10-18T08:52:37;97663.00;;;12.86;67.21
61357;BME280;47227;46.752;23.576;2022-10-18T08:55:25;97659.75;;;12.96;67.63
61357;BME280;47227;46.752;23.576;2022-10-18T08:57:59;97659.54;;;13.05;66.81
61357;BME280;47227;46.752;23.576;2022-10-18T09:00:35;97661.10;;;13.11;66.46
61357;BME280;47227;46.752;23.576;2022-10-18T09:03:47;97656.09;;;13.15;66.28
61357;BME280;47227;46.752;23.576;2022-10-18T09:06:23;97655.96;;;13.15;66.36
61357;BME280;47227;46.752;23.576;2022-10-18T09:12:26;97657.52;;;13.36;66.16
61357;BME280;47227;46.752;23.576;2022-10-18T09:15:14;97655.73;;;13.54;65.72
61357;BME280;47227;46.752;23.576;2022-10-18T09:18:28;97658.76;;;13.70;65.98
61357;BME280;47227;46.752;23.576;2022-10-18T09:21:20;97656.40;;;13.81;65.05
61357;BME280;47227;46.752;23.576;2022-10-18T09:24:11;97658.26;;;14.01;65.37
61357;BME280;47227;46.752;23.576;2022-10-18T09:26:47;97656.59;;;14.05;65.12
61357;BME280;47227;46.752;23.576;2022-10-18T09:29:29;97652.71;;;14.18;65.26
61357;BME280;47227;46.752;23.576;2022-10-18T09:32:13;97652.38;;;14.32;65.04
61357;BME280;47227;46.752;23.576;2022-10-18T09:34:52;97648.82;;;14.49;64.58
61357;BME280;47227;46.752;23.576;2022-10-18T09:37:28;97647.02;;;14.59;64.33
61357;BME280;47227;46.752;23.576;2022-10-18T09:40:11;97645.98;;;14.67;64.38
61357;BME280;47227;46.752;23.576;2022-10-18T09:42:58;97643.41;;;14.78;64.18
61357;BME280;47227;46.752;23.576;2022-10-18T09:45:31;97640.60;;;14.77;63.38
61357;BME280;47227;46.752;23.576;2022-10-18T09:48:25;97640.70;;;14.84;63.70
61357;BME280;47227;46.752;23.576;2022-10-18T09:51:04;97639.36;;;14.99;64.07
61357;BME280;47227;46.752;23.576;2022-10-18T09:59:47;97623.50;;;15.71;62.33
61357;BME280;47227;46.752;23.576;2022-10-18T10:02:20;97619.83;;;15.96;62.30
61357;BME280;47227;46.752;23.576;2022-10-18T10:04:50;97613.81;;;16.13;60.41
61357;BME280;47227;46.752;23.576;2022-10-18T10:07:24;97611.02;;;16.30;60.58
61357;BME280;47227;46.752;23.576;2022-10-18T10:10:04;97608.39;;;16.57;60.78
61357;BME280;47227;46.752;23.576;2022-10-18T10:12:36;97604.52;;;16.81;60.83
61357;BME280;47227;46.752;23.576;2022-10-18T10:15:09;97600.45;;;17.07;59.81
61357;BME280;47227;46.752;23.576;2022-10-18T10:17:41;97600.08;;;17.25;58.13
61357;BME280;47227;46.752;23.576;2022-10-18T10:20:17;97599.64;;;17.31;57.49
61357;BME280;47227;46.752;23.576;2022-10-18T10:22:50;97591.95;;;17.34;57.34
61357;BME280;47227;46.752;23.576;2022-10-18T10:25:29;97585.98;;;17.54;57.45
61357;BME280;47227;46.752;23.576;2022-10-18T10:28:12;97584.13;;;17.79;56.40
61357;BME280;47227;46.752;23.576;2022-10-18T10:30:43;97583.77;;;17.96;56.02
61357;BME280;47227;46.752;23.576;2022-10-18T10:33:31;97581.51;;;18.13;55.78
61357;BME280;47227;46.752;23.576;2022-10-18T10:36:02;97574.88;;;18.30;54.87
61357;BME280;47227;46.752;23.576;2022-10-18T10:38:32;97572.39;;;18.31;54.51
61357;BME280;47227;46.752;23.576;2022-10-18T10:41:00;97567.39;;;18.50;54.40
61357;BME280;47227;46.752;23.576;2022-10-18T10:43:31;97564.00;;;18.74;53.71
61357;BME280;47227;46.752;23.576;2022-10-18T10:46:09;97558.39;;;18.96;53.86
61357;BME280;47227;46.752;23.576;2022-10-18T10:48:51;97557.20;;;19.38;53.65
61357;BME280;47227;46.752;23.576;2022-10-18T10:51:40;97555.42;;;19.79;52.69
61357;BME280;47227;46.752;23.576;2022-10-18T10:54:15;97551.23;;;20.11;50.77
61357;BME280;47227;46.752;23.576;2022-10-18T10:57:02;97545.38;;;20.39;50.69
61357;BME280;47227;46.752;23.576;2022-10-18T10:59:40;97540.73;;;20.61;49.87
61357;BME280;47227;46.752;23.576;2022-10-18T11:02:22;97530.95;;;20.31;49.11
61357;BME280;47227;46.752;23.576;2022-10-18T11:05:23;97529.61;;;20.19;49.31
61357;BME280;47227;46.752;23.576;2022-10-18T11:08:01;97527.83;;;20.35;49.31
61357;BME280;47227;46.752;23.576;2022-10-18T11:10:47;97521.16;;;20.46;48.70
61357;BME280;47227;46.752;23.576;2022-10-18T11:13:42;97511.45;;;20.67;48.23
61357;BME280;47227;46.752;23.576;2022-10-18T11:16:41;97509.19;;;20.82;47.73
61357;BME280;47227;46.752;23.576;2022-10-18T11:22:33;97504.84;;;21.40;47.00
61357;BME280;47227;46.752;23.576;2022-10-18T11:25:04;97500.16;;;21.75;46.25
61357;BME280;47227;46.752;23.576;2022-10-18T11:27:40;97497.14;;;21.88;45.28
61357;BME280;47227;46.752;23.576;2022-10-18T11:30:44;97498.59;;;22.22;45.72
61357;BME280;47227;46.752;23.576;2022-10-18T11:37:08;97485.78;;;22.83;43.02
61357;BME280;47227;46.752;23.576;2022-10-18T11:47:37;97466.55;;;23.38;41.71
61357;BME280;47227;46.752;23.576;2022-10-18T12:05:30;97437.67;;;25.77;35.94
61357;BME280;47227;46.752;23.576;2022-10-18T12:08:07;97433.56;;;25.73;36.48
61357;BME280;47227;46.752;23.576;2022-10-18T12:10:40;97425.16;;;26.10;36.96
61357;BME280;47227;46.752;23.576;2022-10-18T12:13:37;97422.83;;;26.36;35.20
61357;BME280;47227;46.752;23.576;2022-10-18T12:16:08;97419.98;;;26.33;34.68
61357;BME280;47227;46.752;23.576;2022-10-18T12:18:46;97416.81;;;26.19;34.14
61357;BME280;47227;46.752;23.576;2022-10-18T12:21:19;97414.39;;;26.14;34.29
61357;BME280;47227;46.752;23.576;2022-10-18T12:23:57;97415.53;;;25.84;34.58
61357;BME280;47227;46.752;23.576;2022-10-18T12:26:26;97415.00;;;25.68;34.67
61357;BME280;47227;46.752;23.576;2022-10-18T12:29:05;97414.09;;;25.66;34.70
61357;BME280;47227;46.752;23.576;2022-10-18T12:31:45;97411.70;;;25.68;34.72
61357;BME280;47227;46.752;23.576;2022-10-18T12:34:29;97409.63;;;25.35;35.37
61357;BME280;47227;46.752;23.576;2022-10-18T12:40:14;97396.52;;;25.23;35.33
61357;BME280;47227;46.752;23.576;2022-10-18T12:42:52;97393.98;;;25.32;35.26
61357;BME280;47227;46.752;23.576;2022-10-18T12:45:32;97391.88;;;25.38;35.21
61357;BME280;47227;46.752;23.576;2022-10-18T12:48:07;97390.98;;;25.44;34.69
61357;BME280;47227;46.752;23.576;2022-10-18T12:51:06;97388.50;;;25.08;35.49
61357;BME280;47227;46.752;23.576;2022-10-18T12:53:41;97388.29;;;24.93;35.60
61357;BME280;47227;46.752;23.576;2022-10-18T12:56:32;97389.75;;;25.11;35.09
61357;BME280;47227;46.752;23.576;2022-10-18T13:02:19;97390.83;;;25.40;34.74
61357;BME280;47227;46.752;23.576;2022-10-18T13:04:47;97384.82;;;25.87;34.87
61357;BME280;47227;46.752;23.576;2022-10-18T13:07:20;97379.06;;;26.35;33.92
61357;BME280;47227;46.752;23.576;2022-10-18T13:13:04;97371.50;;;26.66;32.35
61357;BME280;47227;46.752;23.576;2022-10-18T13:16:02;97366.41;;;26.93;32.20
61357;BME280;47227;46.752;23.576;2022-10-18T13:18:48;97362.70;;;26.97;31.72
61357;BME280;47227;46.752;23.576;2022-10-18T13:21:26;97360.25;;;27.01;31.89
61357;BME280;47227;46.752;23.576;2022-10-18T13:24:32;97355.26;;;27.32;31.84
61357;BME280;47227;46.752;23.576;2022-10-18T13:27:43;97349.36;;;27.77;31.21
61357;BME280;47227;46.752;23.576;2022-10-18T13:30:29;97347.34;;;27.95;30.46
61357;BME280;47227;46.752;23.576;2022-10-18T13:33:17;97345.02;;;28.01;30.22
61357;BME280;47227;46.752;23.576;2022-10-18T13:35:57;97338.09;;;27.68;30.52
61357;BME280;47227;46.752;23.576;2022-10-18T13:44:21;97330.27;;;28.33;29.64
61357;BME280;47227;46.752;23.576;2022-10-18T14:06:46;97306.71;;;27.96;29.79
61357;BME280;47227;46.752;23.576;2022-10-18T14:09:42;97298.11;;;27.69;30.50
61357;BME280;47227;46.752;23.576;2022-10-18T14:12:22;97293.70;;;26.89;31.49
61357;BME280;47227;46.752;23.576;2022-10-18T14:15:09;97292.34;;;26.54;32.27
61357;BME280;47227;46.752;23.576;2022-10-18T14:17:47;97290.63;;;26.58;32.52
61357;BME280;47227;46.752;23.576;2022-10-18T14:20:35;97288.14;;;26.37;32.59
61357;BME280;47227;46.752;23.576;2022-10-18T14:23:54;97284.19;;;25.94;33.61
61357;BME280;47227;46.752;23.576;2022-10-18T14:27:16;97284.91;;;25.43;34.32
61357;BME280;47227;46.752;23.576;2022-10-18T14:29:42;97282.44;;;25.00;34.86
61357;BME280;47227;46.752;23.576;2022-10-18T14:32:22;97281.85;;;24.47;35.80
61357;BME280;47227;46.752;23.576;2022-10-18T14:34:49;97282.27;;;24.14;36.54
61357;BME280;47227;46.752;23.576;2022-10-18T14:37:34;97278.70;;;23.75;36.85
61357;BME280;47227;46.752;23.576;2022-10-18T14:40:03;97277.36;;;23.27;37.47
61357;BME280;47227;46.752;23.576;2022-10-18T14:42:29;97275.56;;;22.76;38.97
61357;BME280;47227;46.752;23.576;2022-10-18T14:44:56;97272.83;;;22.44;39.81
61357;BME280;47227;46.752;23.576;2022-10-18T14:47:25;97277.36;;;22.32;40.03
61357;BME280;47227;46.752;23.576;2022-10-18T14:49:53;97272.36;;;22.20;39.99
61357;BME280;47227;46.752;23.576;2022-10-18T14:52:25;97275.98;;;21.82;40.61
61357;BME280;47227;46.752;23.576;2022-10-18T14:54:54;97271.73;;;21.33;42.01
61357;BME280;47227;46.752;23.576;2022-10-18T14:57:27;97264.67;;;21.03;42.53
61357;BME280;47227;46.752;23.576;2022-10-18T14:59:57;97261.03;;;20.74;42.97
61357;BME280;47227;46.752;23.576;2022-10-18T15:02:26;97256.54;;;20.46;44.15
61357;BME280;47227;46.752;23.576;2022-10-18T15:05:19;97254.44;;;20.17;44.90
61357;BME280;47227;46.752;23.576;2022-10-18T15:07:47;97251.52;;;19.83;46.16